Time;durP1;ratioP1;P1;durP2;ratioP2;P2;SDS_P1;SDS_P2;PMS_P1;PMS_P2;Temp;Humidity;BMP_temperature;BMP_pressure;BME280_temperature;BME280_humidity;BME280_pressure;Samples;Min_cycle;Max_cycle;Signal;HPM_P1;HPM_P2
2022/07/13 00:00:09;;;;;;;1.93;1.50;;;17.00;99.90;;;;;;5023570;28;20664;-79
2022/07/13 00:02:37;;;;;;;2.33;1.60;;;16.90;99.90;;;;;;5025170;28;20634;-80
2022/07/13 00:05:05;;;;;;;3.60;1.80;;;16.80;99.90;;;;;;5026767;28;20631;-80
2022/07/13 00:07:32;;;;;;;1.90;1.77;;;16.80;99.90;;;;;;5025310;28;20636;-80
2022/07/13 00:09:59;;;;;;;1.50;1.40;;;16.70;99.90;;;;;;5029345;28;20988;-81
2022/07/13 00:12:26;;;;;;;6.37;2.23;;;16.70;99.90;;;;;;5028714;28;21384;-81
2022/07/13 00:14:53;;;;;;;2.20;1.87;;;16.70;99.90;;;;;;5032220;28;21220;-81
2022/07/13 00:17:20;;;;;;;1.27;1.23;;;16.70;99.90;;;;;;5028083;28;20637;-80
2022/07/13 00:19:48;;;;;;;1.30;1.20;;;16.70;99.90;;;;;;5027742;28;20683;-80
2022/07/13 00:22:15;;;;;;;1.70;1.60;;;16.60;99.90;;;;;;5028095;28;20627;-81
2022/07/13 00:24:42;;;;;;;1.80;1.70;;;16.70;99.90;;;;;;5030326;28;20718;-82
2022/07/13 00:27:09;;;;;;;3.60;1.60;;;16.60;99.90;;;;;;5028419;28;20630;-81
2022/07/13 00:29:35;;;;;;;2.97;1.50;;;16.50;99.90;;;;;;5028086;28;21249;-80
2022/07/13 00:32:02;;;;;;;2.23;1.90;;;16.50;99.90;;;;;;5030291;28;20654;-80
2022/07/13 00:34:30;;;;;;;2.00;1.40;;;16.50;99.90;;;;;;5026076;28;20987;-80
2022/07/13 00:36:58;;;;;;;1.87;1.50;;;16.40;99.90;;;;;;5023564;28;20661;-80
2022/07/13 00:39:25;;;;;;;2.03;1.83;;;16.40;99.90;;;;;;5028859;28;20629;-80
2022/07/13 00:41:52;;;;;;;1.73;1.20;;;16.30;99.90;;;;;;5027962;28;20639;-81
2022/07/13 00:44:19;;;;;;;2.63;2.10;;;16.40;99.90;;;;;;5028348;28;21001;-80
2022/07/13 00:46:52;;;;;;;1.80;1.70;;;16.30;99.90;;;;;;5026263;28;20633;-81
2022/07/13 00:49:19;;;;;;;1.70;1.60;;;16.30;99.90;;;;;;5028221;28;20626;-80
2022/07/13 00:51:46;;;;;;;2.37;1.40;;;16.30;99.90;;;;;;5025556;28;20658;-80
2022/07/13 00:54:16;;;;;;;2.37;1.50;;;16.30;99.90;;;;;;5026808;28;20645;-80
2022/07/13 00:56:44;;;;;;;1.37;1.30;;;16.10;99.90;;;;;;5028377;28;20641;-80
2022/07/13 00:59:11;;;;;;;2.00;1.27;;;16.10;99.90;;;;;;5030093;28;21201;-80
2022/07/13 01:01:38;;;;;;;2.50;1.47;;;16.10;99.90;;;;;;5028771;28;20642;-80
2022/07/13 01:04:05;;;;;;;1.80;1.63;;;16.10;99.90;;;;;;5028646;28;20610;-81
2022/07/13 01:06:32;;;;;;;7.50;1.60;;;16.10;99.90;;;;;;5025703;28;20630;-80
2022/07/13 01:08:58;;;;;;;1.40;1.30;;;16.10;99.90;;;;;;5027737;28;20650;-80
2022/07/13 01:11:26;;;;;;;1.70;1.60;;;16.10;99.90;;;;;;5029569;28;20658;-81
2022/07/13 01:13:53;;;;;;;1.80;1.70;;;16.10;99.90;;;;;;5028305;28;20627;-81
2022/07/13 01:16:20;;;;;;;1.47;1.37;;;16.00;99.90;;;;;;5027634;28;20630;-80
2022/07/13 01:18:47;;;;;;;2.97;2.30;;;16.00;99.90;;;;;;5029704;28;20993;-80
2022/07/13 01:21:14;;;;;;;1.93;1.50;;;16.00;99.90;;;;;;5025759;28;20678;-81
2022/07/13 01:23:43;;;;;;;1.80;1.70;;;16.00;99.90;;;;;;5028119;28;21180;-80
2022/07/13 01:26:11;;;;;;;1.50;1.40;;;15.90;99.90;;;;;;5027800;28;20627;-80
2022/07/13 01:28:38;;;;;;;1.43;1.33;;;15.90;99.90;;;;;;5029599;28;20633;-80
2022/07/13 01:31:05;;;;;;;1.77;1.67;;;15.90;99.90;;;;;;5029312;28;20661;-81
2022/07/13 01:33:32;;;;;;;1.43;1.33;;;15.90;99.90;;;;;;5026294;28;20677;-81
2022/07/13 01:35:59;;;;;;;3.87;1.50;;;15.80;99.90;;;;;;5027394;28;21240;-81
2022/07/13 01:38:26;;;;;;;1.53;1.30;;;15.80;99.90;;;;;;5028676;28;20650;-81
2022/07/13 01:40:54;;;;;;;2.60;1.53;;;15.80;99.90;;;;;;5024667;28;21233;-80
2022/07/13 01:43:27;;;;;;;1.77;1.67;;;15.80;99.90;;;;;;5027743;28;20619;-80
2022/07/13 01:45:54;;;;;;;1.70;1.60;;;15.80;99.90;;;;;;5026273;28;20627;-81
2022/07/13 01:48:21;;;;;;;2.00;1.50;;;15.70;99.90;;;;;;5027196;28;20645;-81
2022/07/13 01:50:48;;;;;;;1.77;1.03;;;15.70;99.90;;;;;;5027966;28;20655;-80
2022/07/13 01:53:15;;;;;;;1.77;1.67;;;15.70;99.90;;;;;;5020676;28;21086;-80
2022/07/13 01:55:42;;;;;;;1.80;1.40;;;15.70;99.90;;;;;;5026735;28;21331;-80
2022/07/13 01:58:10;;;;;;;1.73;1.63;;;15.70;99.90;;;;;;5028708;28;21173;-80
2022/07/13 02:00:37;;;;;;;2.23;1.70;;;15.70;99.90;;;;;;5026010;28;20685;-80
2022/07/13 02:03:04;;;;;;;1.40;1.27;;;15.70;99.90;;;;;;5026579;28;20627;-80
2022/07/13 02:05:31;;;;;;;1.90;1.33;;;15.70;99.90;;;;;;5026586;28;20700;-80
2022/07/13 02:07:58;;;;;;;1.53;1.20;;;15.70;99.90;;;;;;5025613;28;20688;-81
2022/07/13 02:10:34;;;;;;;1.57;1.47;;;15.70;99.90;;;;;;5027941;28;21263;-80
2022/07/13 02:13:01;;;;;;;1.70;1.60;;;15.70;99.90;;;;;;5028180;28;20685;-80
2022/07/13 02:15:30;;;;;;;1.33;1.23;;;15.70;99.90;;;;;;5028056;28;20639;-80
2022/07/13 02:17:56;;;;;;;2.07;1.87;;;15.70;99.90;;;;;;5028262;28;20638;-80
2022/07/13 02:20:23;;;;;;;1.80;1.70;;;15.70;99.90;;;;;;5024083;28;21177;-80
2022/07/13 02:22:50;;;;;;;2.10;1.50;;;15.70;99.90;;;;;;5025441;28;20644;-80
2022/07/13 02:25:17;;;;;;;1.63;1.53;;;15.60;99.90;;;;;;5026993;28;20627;-81
2022/07/13 02:27:44;;;;;;;5.03;2.10;;;15.70;99.90;;;;;;5020965;28;21225;-80
2022/07/13 02:30:12;;;;;;;2.00;1.90;;;15.60;99.90;;;;;;5026812;28;20663;-81
2022/07/13 02:32:41;;;;;;;2.43;2.23;;;15.70;99.90;;;;;;5025001;28;20682;-80
2022/07/13 02:35:09;;;;;;;2.00;1.80;;;15.70;99.90;;;;;;5026456;28;20630;-80
2022/07/13 02:37:36;;;;;;;1.93;1.83;;;15.70;99.90;;;;;;5025189;28;20638;-81
2022/07/13 02:40:03;;;;;;;2.27;2.07;;;15.60;99.90;;;;;;5025657;28;20654;-81
2022/07/13 02:42:30;;;;;;;2.13;2.00;;;15.70;99.90;;;;;;5024279;28;20634;-81
2022/07/13 02:44:57;;;;;;;2.07;1.87;;;15.60;99.90;;;;;;5028013;28;20633;-80
2022/07/13 02:47:24;;;;;;;2.60;2.40;;;15.70;99.90;;;;;;5022586;28;20721;-80
2022/07/13 02:49:52;;;;;;;3.13;2.30;;;15.70;99.90;;;;;;5027151;28;20698;-80
2022/07/13 02:52:19;;;;;;;2.63;2.30;;;15.80;99.90;;;;;;5026009;28;20666;-80
2022/07/13 02:54:46;;;;;;;2.23;2.13;;;15.80;99.90;;;;;;5024259;28;20638;-80
2022/07/13 02:57:13;;;;;;;4.40;2.73;;;15.70;99.90;;;;;;5025443;28;20641;-80
2022/07/13 02:59:40;;;;;;;2.77;2.57;;;15.80;99.90;;;;;;5027580;28;20667;-80
2022/07/13 03:02:07;;;;;;;2.40;2.30;;;15.80;99.90;;;;;;5026327;28;20630;-81
2022/07/13 03:04:36;;;;;;;2.33;1.87;;;15.70;99.90;;;;;;5022377;28;20641;-81
2022/07/13 03:07:04;;;;;;;1.90;1.80;;;15.70;99.90;;;;;;5024106;28;20627;-81
2022/07/13 03:09:31;;;;;;;2.23;2.13;;;15.60;99.90;;;;;;5025542;28;21254;-81
2022/07/13 03:11:57;;;;;;;2.77;2.50;;;15.60;99.90;;;;;;5026698;28;20630;-80
2022/07/13 03:14:24;;;;;;;3.10;2.30;;;15.50;99.90;;;;;;5026826;28;20666;-81
2022/07/13 03:16:51;;;;;;;2.03;1.93;;;15.50;99.90;;;;;;5026853;28;20626;-80
2022/07/13 03:19:18;;;;;;;2.60;2.40;;;15.50;99.90;;;;;;5025069;28;21421;-80
2022/07/13 03:21:44;;;;;;;2.93;2.50;;;15.40;99.90;;;;;;5025543;28;20634;-81
2022/07/13 03:24:12;;;;;;;2.43;2.23;;;15.40;99.90;;;;;;5027242;28;20759;-80
2022/07/13 03:26:39;;;;;;;2.00;1.90;;;15.30;99.90;;;;;;5024360;28;20634;-81
2022/07/13 03:29:06;;;;;;;2.13;2.00;;;15.30;99.90;;;;;;5027254;28;20634;-80
2022/07/13 03:31:33;;;;;;;2.40;2.30;;;15.20;99.90;;;;;;5024814;28;20674;-80
2022/07/13 03:34:00;;;;;;;2.33;1.90;;;15.20;99.90;;;;;;5026768;28;20682;-80
2022/07/13 03:36:27;;;;;;;2.37;1.57;;;15.20;99.90;;;;;;5025481;28;20626;-80
2022/07/13 03:38:54;;;;;;;1.37;1.27;;;15.20;99.90;;;;;;5027401;28;20726;-80
2022/07/13 03:41:22;;;;;;;1.80;1.70;;;15.10;99.90;;;;;;5024937;28;20653;-80
2022/07/13 03:43:48;;;;;;;2.20;2.00;;;15.10;99.90;;;;;;5029050;28;20635;-80
2022/07/13 03:46:15;;;;;;;2.20;2.00;;;15.10;99.90;;;;;;5027518;28;20626;-80
2022/07/13 03:48:42;;;;;;;1.97;1.87;;;15.10;99.90;;;;;;5029231;28;21317;-81
2022/07/13 03:51:09;;;;;;;2.17;1.90;;;15.10;99.90;;;;;;5030573;28;20665;-81
2022/07/13 03:53:36;;;;;;;2.10;1.90;;;15.10;99.90;;;;;;5025275;28;20678;-80
2022/07/13 03:56:02;;;;;;;1.70;1.60;;;15.10;99.90;;;;;;5027558;28;20642;-80
2022/07/13 03:58:30;;;;;;;2.07;1.97;;;15.10;99.90;;;;;;5029370;28;20658;-80
2022/07/13 04:00:57;;;;;;;2.43;1.83;;;15.10;99.90;;;;;;5029052;28;21055;-81
2022/07/13 04:03:24;;;;;;;1.43;1.33;;;15.10;99.90;;;;;;5029105;28;20619;-81
2022/07/13 04:05:51;;;;;;;1.97;1.87;;;15.00;99.90;;;;;;5026110;28;20833;-81
2022/07/13 04:08:18;;;;;;;1.80;1.40;;;15.00;99.90;;;;;;5026954;28;20659;-81
2022/07/13 04:10:45;;;;;;;1.53;1.43;;;15.00;99.90;;;;;;5027156;28;20659;-81
2022/07/13 04:13:12;;;;;;;2.00;1.80;;;15.00;99.90;;;;;;5028361;28;20673;-81
2022/07/13 04:15:40;;;;;;;1.90;1.70;;;15.00;99.90;;;;;;5029736;28;21312;-81
2022/07/13 04:18:07;;;;;;;1.57;1.47;;;15.10;99.90;;;;;;5030234;28;20631;-80
2022/07/13 04:20:33;;;;;;;2.47;2.07;;;15.00;99.90;;;;;;5027697;28;20653;-81
2022/07/13 04:23:00;;;;;;;1.60;1.50;;;15.00;99.90;;;;;;5025998;28;20752;-80
2022/07/13 04:25:27;;;;;;;2.03;1.93;;;15.00;99.90;;;;;;5029641;28;20631;-81
2022/07/13 04:27:54;;;;;;;2.10;1.90;;;15.00;99.90;;;;;;5028383;28;20721;-81
2022/07/13 04:30:21;;;;;;;1.77;1.60;;;15.00;99.90;;;;;;5029384;28;20685;-80
2022/07/13 04:32:49;;;;;;;2.73;1.60;;;15.10;99.90;;;;;;5025511;28;20671;-80
2022/07/13 04:35:16;;;;;;;1.60;1.50;;;15.00;99.90;;;;;;5028546;28;20977;-81
2022/07/13 04:37:43;;;;;;;2.67;1.50;;;15.10;99.90;;;;;;5027126;28;20651;-80
2022/07/13 04:40:11;;;;;;;1.70;1.60;;;15.10;99.90;;;;;;5028340;28;20664;-81
2022/07/13 04:42:37;;;;;;;1.83;1.73;;;15.10;99.90;;;;;;5028778;28;20703;-80
2022/07/13 04:45:05;;;;;;;2.70;1.73;;;15.20;99.90;;;;;;5027803;28;20632;-81
2022/07/13 04:47:32;;;;;;;3.60;2.07;;;15.20;99.90;;;;;;5025166;28;20626;-81
2022/07/13 04:50:00;;;;;;;1.90;1.77;;;15.20;99.90;;;;;;5029804;28;20748;-79
2022/07/13 04:52:27;;;;;;;2.27;2.00;;;15.30;99.90;;;;;;5027741;28;20628;-80
2022/07/13 04:54:54;;;;;;;2.67;2.20;;;15.30;99.90;;;;;;5023749;28;21211;-80
2022/07/13 04:57:21;;;;;;;2.23;2.13;;;15.40;99.90;;;;;;5026468;28;20631;-80
2022/07/13 04:59:47;;;;;;;2.50;2.03;;;15.40;99.90;;;;;;5029535;28;21236;-80
2022/07/13 05:02:14;;;;;;;3.17;1.80;;;15.50;99.90;;;;;;5028212;28;20626;-81
2022/07/13 05:04:41;;;;;;;2.60;1.97;;;15.60;99.90;;;;;;5024597;28;20637;-80
2022/07/13 05:07:09;;;;;;;2.90;2.43;;;15.70;99.90;;;;;;5026582;28;20757;-80
2022/07/13 05:09:36;;;;;;;2.30;1.97;;;15.70;99.90;;;;;;5030034;28;20662;-80
2022/07/13 05:12:03;;;;;;;1.90;1.70;;;15.80;99.90;;;;;;5028653;28;20630;-80
2022/07/13 05:14:30;;;;;;;3.10;1.70;;;16.00;99.90;;;;;;5029109;28;20666;-80
2022/07/13 05:16:57;;;;;;;2.83;1.73;;;16.10;99.90;;;;;;5028767;28;20631;-80
2022/07/13 05:19:24;;;;;;;2.20;1.63;;;16.20;99.90;;;;;;5024905;28;20622;-80
2022/07/13 05:21:50;;;;;;;2.13;1.97;;;16.30;99.90;;;;;;5026762;28;20995;-80
2022/07/13 05:24:19;;;;;;;2.30;2.10;;;16.30;99.90;;;;;;5029194;28;21214;-80
2022/07/13 05:26:45;;;;;;;5.73;2.43;;;16.30;99.90;;;;;;5025497;28;20637;-79
2022/07/13 05:29:12;;;;;;;5.10;2.20;;;16.20;99.90;;;;;;5025677;28;20646;-81
2022/07/13 05:31:39;;;;;;;2.60;2.40;;;16.30;99.90;;;;;;5031428;28;20643;-81
2022/07/13 05:34:06;;;;;;;6.87;2.10;;;16.40;99.90;;;;;;5026028;28;20663;-80
2022/07/13 05:36:33;;;;;;;2.60;1.80;;;16.60;99.90;;;;;;5027992;28;20631;-80
2022/07/13 05:39:00;;;;;;;2.40;1.90;;;16.70;99.90;;;;;;5029196;28;20689;-81
2022/07/13 05:41:28;;;;;;;2.67;2.00;;;16.80;99.90;;;;;;5026450;28;20737;-81
2022/07/13 05:43:55;;;;;;;2.13;1.93;;;16.90;99.90;;;;;;5025454;28;21185;-80
2022/07/13 05:46:22;;;;;;;1.50;1.40;;;17.00;99.90;;;;;;5024588;28;20634;-80
2022/07/13 05:48:48;;;;;;;2.73;1.77;;;17.10;99.90;;;;;;5028385;28;21006;-80
2022/07/13 05:51:15;;;;;;;4.30;2.10;;;17.20;99.90;;;;;;5030264;28;20651;-81
2022/07/13 05:53:42;;;;;;;2.57;1.67;;;17.30;99.90;;;;;;5027453;28;20659;-79
2022/07/13 05:56:09;;;;;;;2.10;1.77;;;17.40;99.90;;;;;;5028817;28;20672;-79
2022/07/13 05:58:37;;;;;;;2.00;1.67;;;17.40;99.90;;;;;;5029140;28;21247;-80
2022/07/13 06:01:04;;;;;;;2.97;1.87;;;17.50;99.90;;;;;;5024116;28;20653;-80
2022/07/13 06:03:31;;;;;;;2.07;1.50;;;17.50;99.90;;;;;;5023215;28;20619;-80
2022/07/13 06:05:58;;;;;;;3.03;1.57;;;17.60;99.90;;;;;;5027486;28;21498;-80
2022/07/13 06:08:25;;;;;;;2.33;2.07;;;17.70;99.90;;;;;;5024726;28;21041;-80
2022/07/13 06:10:52;;;;;;;2.30;2.10;;;17.70;99.90;;;;;;5028626;28;20662;-79
2022/07/13 06:13:19;;;;;;;3.83;2.23;;;17.90;99.90;;;;;;5027813;28;20697;-81
2022/07/13 06:15:47;;;;;;;3.83;2.40;;;18.10;99.90;;;;;;5027436;28;20635;-81
2022/07/13 06:18:14;;;;;;;5.40;1.93;;;18.20;99.90;;;;;;5027768;28;20984;-81
2022/07/13 06:20:41;;;;;;;4.20;2.67;;;18.30;99.90;;;;;;5025705;28;20655;-80
2022/07/13 06:23:10;;;;;;;2.43;1.90;;;18.40;99.90;;;;;;5028228;28;20625;-81
2022/07/13 06:25:37;;;;;;;4.37;2.93;;;18.50;99.90;;;;;;5027131;28;20704;-81
2022/07/13 06:28:05;;;;;;;4.03;2.50;;;18.60;99.90;;;;;;5023394;28;21194;-81
2022/07/13 06:30:32;;;;;;;2.67;1.63;;;18.60;99.90;;;;;;5025881;28;20998;-81
2022/07/13 06:33:00;;;;;;;2.57;2.10;;;18.70;99.90;;;;;;5020809;28;20647;-81
2022/07/13 06:35:27;;;;;;;2.50;1.93;;;18.90;99.90;;;;;;5025411;28;20682;-79
2022/07/13 06:37:54;;;;;;;2.27;1.73;;;18.90;99.90;;;;;;5025790;28;20626;-81
2022/07/13 06:40:21;;;;;;;3.60;2.47;;;19.10;99.90;;;;;;5027708;28;20674;-80
2022/07/13 06:42:48;;;;;;;2.20;2.00;;;19.20;99.90;;;;;;5026206;28;20630;-81
2022/07/13 06:45:15;;;;;;;3.93;1.83;;;19.40;99.90;;;;;;5027250;28;20622;-79
2022/07/13 06:47:42;;;;;;;2.20;1.83;;;19.50;99.90;;;;;;5025381;28;20656;-79
2022/07/13 06:50:11;;;;;;;4.07;2.27;;;19.50;99.90;;;;;;5027758;28;20649;-79
2022/07/13 06:52:40;;;;;;;2.63;1.90;;;19.70;99.90;;;;;;5027051;28;20637;-79
2022/07/13 06:55:08;;;;;;;4.00;2.87;;;19.80;99.90;;;;;;5019430;28;20689;-80
2022/07/13 06:57:35;;;;;;;3.10;1.93;;;19.90;99.90;;;;;;5021621;28;20635;-80
2022/07/13 07:00:03;;;;;;;4.43;2.13;;;20.00;99.90;;;;;;5025195;28;20669;-80
2022/07/13 07:02:30;;;;;;;1.93;1.80;;;20.10;99.90;;;;;;5025220;28;20638;-80
2022/07/13 07:04:56;;;;;;;3.70;2.00;;;20.20;99.90;;;;;;5024987;28;20639;-80
2022/07/13 07:07:25;;;;;;;5.90;2.07;;;20.20;99.90;;;;;;5024490;28;20653;-80
2022/07/13 07:09:52;;;;;;;4.60;2.03;;;20.20;99.90;;;;;;5025995;28;20647;-80
2022/07/13 07:12:18;;;;;;;5.30;1.90;;;20.30;99.90;;;;;;5026810;28;20638;-80
2022/07/13 07:14:45;;;;;;;3.77;1.97;;;20.50;99.90;;;;;;5024432;28;20669;-80
2022/07/13 07:17:13;;;;;;;3.73;1.50;;;20.60;99.90;;;;;;5024269;28;20638;-80
2022/07/13 07:19:40;;;;;;;2.63;1.60;;;20.80;99.90;;;;;;5024576;28;20698;-80
2022/07/13 07:22:06;;;;;;;2.00;1.20;;;20.90;99.90;;;;;;5026092;28;20631;-81
2022/07/13 07:24:34;;;;;;;4.53;2.17;;;21.10;99.90;;;;;;5027243;28;20642;-81
2022/07/13 07:27:02;;;;;;;2.10;1.60;;;21.30;99.90;;;;;;5026683;28;20630;-81
2022/07/13 07:29:29;;;;;;;4.97;2.23;;;21.40;99.90;;;;;;5023166;28;20726;-81
2022/07/13 07:31:55;;;;;;;2.93;1.87;;;21.50;99.90;;;;;;5024109;28;20642;-81
2022/07/13 07:34:22;;;;;;;3.57;1.93;;;21.50;99.90;;;;;;5023916;28;20666;-80
2022/07/13 07:36:49;;;;;;;2.50;1.60;;;21.60;99.90;;;;;;5027081;28;20639;-81
2022/07/13 07:39:16;;;;;;;1.77;1.50;;;21.70;99.90;;;;;;5029041;28;20635;-81
2022/07/13 07:41:44;;;;;;;1.53;1.20;;;21.80;99.90;;;;;;5027983;28;21009;-81
2022/07/13 07:44:11;;;;;;;5.47;2.00;;;22.00;99.90;;;;;;5025142;28;20630;-81
2022/07/13 07:46:38;;;;;;;4.10;1.10;;;22.00;98.50;;;;;;5023622;28;20693;-81
2022/07/13 07:49:05;;;;;;;4.07;1.10;;;22.20;98.40;;;;;;5023979;28;21257;-81
2022/07/13 07:51:32;;;;;;;2.33;1.20;;;22.30;98.90;;;;;;5026491;28;21019;-81
2022/07/13 07:53:58;;;;;;;1.30;1.20;;;22.40;98.50;;;;;;5024152;28;20667;-81
2022/07/13 07:56:25;;;;;;;2.20;1.07;;;22.60;98.40;;;;;;5026743;28;21014;-81
2022/07/13 07:58:54;;;;;;;2.70;1.27;;;22.80;98.20;;;;;;5025902;28;20634;-81
2022/07/13 08:01:21;;;;;;;1.40;1.30;;;23.00;97.40;;;;;;5025244;28;20650;-81
2022/07/13 08:03:48;;;;;;;1.70;1.23;;;23.20;97.80;;;;;;5024530;28;20619;-81
2022/07/13 08:06:16;;;;;;;7.30;1.73;;;23.40;96.90;;;;;;5026393;28;20635;-81
2022/07/13 08:08:43;;;;;;;1.17;1.07;;;23.50;96.50;;;;;;5020740;28;20644;-81
2022/07/13 08:11:16;;;;;;;5.30;1.43;;;23.80;96.50;;;;;;5026992;28;21444;-81
2022/07/13 08:13:42;;;;;;;1.90;0.90;;;24.00;96.10;;;;;;5023515;28;20619;-81
2022/07/13 08:16:11;;;;;;;1.90;1.03;;;24.20;96.10;;;;;;5026276;28;21167;-81
2022/07/13 08:18:38;;;;;;;2.87;1.47;;;24.50;95.40;;;;;;5026158;28;20619;-81
2022/07/13 08:21:06;;;;;;;1.00;1.00;;;24.60;94.60;;;;;;5023006;28;20661;-80
2022/07/13 08:26:18;;;;;;;1.40;1.20;;;25.00;93.60;;;;;;5025032;28;20614;-81
2022/07/13 08:28:45;;;;;;;1.77;0.87;;;25.30;93.30;;;;;;5025473;28;20646;-81
2022/07/13 08:31:13;;;;;;;4.57;1.10;;;25.40;92.90;;;;;;5028311;28;21192;-79
2022/07/13 08:39:10;;;;;;;1.90;0.90;;;25.90;90.30;;;;;;5027640;28;20606;-81
2022/07/13 08:41:38;;;;;;;2.30;1.00;;;26.10;90.00;;;;;;5030227;28;20639;-81
2022/07/13 08:44:05;;;;;;;8.53;1.80;;;26.30;89.40;;;;;;5024121;28;20637;-81
2022/07/13 08:46:34;;;;;;;2.03;1.03;;;26.40;88.40;;;;;;5027049;28;20655;-80
2022/07/13 08:49:02;;;;;;;1.53;0.80;;;26.40;85.70;;;;;;5028106;28;20642;-80
2022/07/13 08:51:31;;;;;;;2.07;1.07;;;26.60;85.80;;;;;;5029873;28;21050;-81
2022/07/13 08:53:58;;;;;;;2.03;1.03;;;26.70;87.20;;;;;;5025463;28;20647;-81
2022/07/13 08:56:25;;;;;;;1.80;1.10;;;26.80;86.70;;;;;;5027295;28;21165;-81
2022/07/13 08:58:53;;;;;;;1.00;1.00;;;27.00;86.20;;;;;;5025214;28;20699;-81
2022/07/13 09:01:20;;;;;;;2.67;1.17;;;26.80;84.70;;;;;;5028062;28;20647;-81
2022/07/13 09:03:48;;;;;;;0.83;0.80;;;26.90;85.00;;;;;;5030302;28;21219;-80
2022/07/13 09:06:43;;;;;;;2.10;0.80;;;27.00;84.30;;;;;;5027418;28;21185;-81
2022/07/13 09:09:25;;;;;;;1.37;1.10;;;27.20;85.00;;;;;;5027884;28;20638;-81
2022/07/13 09:11:52;;;;;;;1.07;0.90;;;27.50;86.10;;;;;;5029116;28;21138;-81
2022/07/13 09:14:24;;;;;;;2.13;1.00;;;27.70;85.90;;;;;;5028536;28;20660;-80
2022/07/13 09:16:52;;;;;;;2.90;1.00;;;27.90;84.30;;;;;;5026921;28;20623;-80
2022/07/13 09:19:25;;;;;;;1.70;1.60;;;27.90;80.70;;;;;;5028630;28;21209;-80
2022/07/13 09:21:52;;;;;;;2.47;1.00;;;28.00;81.70;;;;;;5026366;28;20626;-80
2022/07/13 09:24:19;;;;;;;2.87;0.83;;;28.10;82.50;;;;;;5029048;28;20627;-80
2022/07/13 09:26:47;;;;;;;1.53;1.03;;;28.30;80.70;;;;;;5022945;28;20642;-80
2022/07/13 09:29:15;;;;;;;2.03;0.87;;;28.30;78.50;;;;;;5027065;28;20934;-81
2022/07/13 09:31:52;;;;;;;1.40;1.23;;;28.40;80.30;;;;;;5029357;28;20687;-81
2022/07/13 09:34:20;;;;;;;2.07;1.30;;;28.50;80.30;;;;;;5025102;28;20662;-81
2022/07/13 09:37:07;;;;;;;1.47;1.20;;;28.50;78.70;;;;;;5027997;28;20634;-80
2022/07/13 09:39:36;;;;;;;1.83;1.10;;;28.60;78.50;;;;;;5026095;28;20654;-81
2022/07/13 09:42:03;;;;;;;2.70;1.03;;;28.60;77.70;;;;;;5022621;28;20633;-81
2022/07/13 09:47:29;;;;;;;1.00;0.90;;;28.50;78.10;;;;;;4963217;28;20610;-81
2022/07/13 09:49:58;;;;;;;3.37;1.00;;;28.50;77.20;;;;;;4967273;28;20656;-81
2022/07/13 09:52:31;;;;;;;3.00;1.40;;;28.60;76.90;;;;;;4992650;28;20698;-81
2022/07/13 09:55:00;;;;;;;1.33;1.00;;;28.60;76.70;;;;;;5026716;28;20663;-80
2022/07/13 09:57:30;;;;;;;2.33;0.93;;;28.60;76.40;;;;;;5021463;28;21349;-80
2022/07/13 09:59:58;;;;;;;5.53;1.53;;;28.70;74.00;;;;;;5041268;28;20666;-80
2022/07/13 10:02:26;;;;;;;3.43;1.10;;;28.70;73.60;;;;;;5025604;28;20631;-81
2022/07/13 10:04:54;;;;;;;1.50;1.00;;;28.70;72.80;;;;;;5028428;28;20690;-80
2022/07/13 10:07:22;;;;;;;3.00;1.03;;;28.70;72.60;;;;;;5024193;28;20627;-80
2022/07/13 10:09:49;;;;;;;1.70;1.13;;;28.80;70.60;;;;;;5025941;28;20748;-80
2022/07/13 10:12:15;;;;;;;1.57;1.00;;;28.80;71.90;;;;;;5025451;28;20630;-80
2022/07/13 10:14:42;;;;;;;2.97;1.00;;;28.90;71.80;;;;;;5025386;28;20663;-80
2022/07/13 10:17:12;;;;;;;2.70;0.87;;;28.90;67.90;;;;;;5027539;28;20633;-80
2022/07/13 10:19:43;;;;;;;1.00;0.80;;;28.90;65.50;;;;;;5025682;28;20663;-82
2022/07/13 10:22:14;;;;;;;0.83;0.60;;;28.90;60.90;;;;;;5026294;28;20619;-81
2022/07/13 10:24:52;;;;;;;3.00;0.80;;;28.90;63.20;;;;;;5027701;28;20626;-81
2022/07/13 10:27:25;;;;;;;1.50;0.83;;;29.00;63.60;;;;;;5025895;28;20652;-80
2022/07/13 10:29:54;;;;;;;2.70;0.70;;;29.00;60.10;;;;;;5023512;28;21156;-80
2022/07/13 10:32:22;;;;;;;1.43;0.80;;;28.90;59.80;;;;;;5032543;28;20693;-80
2022/07/13 10:34:51;;;;;;;1.70;0.70;;;28.90;57.10;;;;;;5035460;28;21276;-80
2022/07/13 10:37:19;;;;;;;2.97;0.80;;;28.90;58.20;;;;;;5023609;28;21004;-79
2022/07/13 10:40:12;;;;;;;2.43;0.90;;;29.00;58.80;;;;;;5022635;28;20661;-79
2022/07/13 10:43:09;;;;;;;0.93;0.60;;;29.00;57.80;;;;;;5026583;28;20623;-79
2022/07/13 10:45:41;;;;;;;2.67;0.80;;;29.00;57.40;;;;;;5022163;28;20635;-79
2022/07/13 10:48:10;;;;;;;0.97;0.50;;;29.20;55.80;;;;;;5022420;28;20634;-79
2022/07/13 10:50:46;;;;;;;1.80;0.83;;;29.30;56.20;;;;;;5027258;28;20721;-79
2022/07/13 10:53:15;;;;;;;1.07;1.00;;;29.50;56.80;;;;;;5023066;28;20641;-79
2022/07/13 10:55:47;;;;;;;0.60;0.60;;;29.70;56.00;;;;;;5026808;28;20667;-79
2022/07/13 10:58:42;;;;;;;3.50;0.73;;;30.00;55.10;;;;;;5025102;28;21006;-79
2022/07/13 11:01:50;;;;;;;0.70;0.70;;;30.10;51.20;;;;;;5021577;28;20674;-79
2022/07/13 11:04:18;;;;;;;1.33;0.80;;;30.40;53.70;;;;;;5016941;28;20635;-79
2022/07/13 11:07:07;;;;;;;1.17;0.67;;;30.60;49.90;;;;;;5024580;28;20626;-79
2022/07/13 11:09:34;;;;;;;1.73;0.80;;;30.90;51.80;;;;;;5026232;28;20658;-79
2022/07/13 11:12:02;;;;;;;1.30;0.90;;;31.00;51.90;;;;;;5023671;28;20635;-79
2022/07/13 11:14:51;;;;;;;1.57;0.93;;;31.10;51.10;;;;;;5026763;28;20630;-79
2022/07/13 11:17:20;;;;;;;0.63;0.60;;;31.20;50.60;;;;;;5023103;28;20919;-79
2022/07/13 11:19:51;;;;;;;1.20;0.80;;;31.50;50.40;;;;;;5022893;28;20686;-79
2022/07/13 11:22:18;;;;;;;2.97;1.00;;;31.70;50.60;;;;;;5024734;28;21254;-79
2022/07/13 11:27:55;;;;;;;1.77;0.77;;;32.40;50.30;;;;;;5022118;28;20679;-79
2022/07/13 11:30:29;;;;;;;1.63;0.83;;;32.80;49.70;;;;;;5026336;28;21045;-79
2022/07/13 11:32:56;;;;;;;1.13;0.90;;;32.90;48.20;;;;;;5026541;28;20716;-79
2022/07/13 11:35:23;;;;;;;3.57;1.10;;;33.00;48.00;;;;;;5025292;28;20896;-79
2022/07/13 11:37:51;;;;;;;1.23;0.90;;;33.10;47.50;;;;;;5025753;28;20634;-79
2022/07/13 11:40:28;;;;;;;2.20;0.90;;;33.10;46.70;;;;;;5025546;28;20646;-79
2022/07/13 11:42:59;;;;;;;1.50;0.80;;;33.20;46.30;;;;;;5024157;28;21202;-79
2022/07/13 11:45:27;;;;;;;1.20;0.70;;;33.30;46.10;;;;;;5025310;28;20977;-79
2022/07/13 11:47:59;;;;;;;0.80;0.70;;;33.50;43.30;;;;;;5023084;28;20622;-80
2022/07/13 11:50:43;;;;;;;1.33;0.60;;;33.60;42.40;;;;;;5029769;28;20649;-80
2022/07/13 11:53:19;;;;;;;2.10;0.60;;;33.90;41.20;;;;;;5022669;28;20632;-80
2022/07/13 11:55:46;;;;;;;0.93;0.60;;;34.10;41.00;;;;;;5020416;28;20649;-80
2022/07/13 11:58:27;;;;;;;1.83;0.60;;;34.30;39.70;;;;;;5025925;28;20989;-79
2022/07/13 12:00:54;;;;;;;0.80;0.60;;;34.50;39.30;;;;;;5025645;28;20986;-79
2022/07/13 12:03:32;;;;;;;2.00;0.63;;;34.80;38.50;;;;;;5028075;28;20625;-79
2022/07/13 12:06:08;;;;;;;1.83;0.67;;;35.00;37.20;;;;;;5029470;28;20630;-79
2022/07/13 12:08:36;;;;;;;1.37;0.60;;;35.20;35.90;;;;;;5029720;28;21247;-79
2022/07/13 12:11:05;;;;;;;1.03;0.77;;;35.30;35.10;;;;;;5031129;28;20664;-79
2022/07/13 12:13:35;;;;;;;1.80;0.53;;;35.40;34.80;;;;;;5030566;28;20630;-79
2022/07/13 12:16:03;;;;;;;4.00;0.67;;;35.70;34.20;;;;;;5030014;28;20716;-79
2022/07/13 12:18:30;;;;;;;3.60;0.73;;;35.90;34.60;;;;;;5029675;28;21161;-79
2022/07/13 12:20:57;;;;;;;1.10;0.50;;;36.00;34.40;;;;;;5028175;28;20670;-80
2022/07/13 12:23:24;;;;;;;1.70;0.50;;;36.50;33.50;;;;;;5026394;28;20817;-80
2022/07/13 12:26:06;;;;;;;3.10;0.63;;;36.80;33.10;;;;;;5029618;28;20226;-80
2022/07/13 12:28:38;;;;;;;3.63;0.57;;;36.70;30.60;;;;;;5025788;28;20207;-80
2022/07/13 12:31:06;;;;;;;0.73;0.40;;;36.90;30.00;;;;;;5026261;28;20235;-80
2022/07/13 12:33:42;;;;;;;1.63;0.70;;;36.90;30.30;;;;;;5025939;28;20203;-80
2022/07/13 12:36:10;;;;;;;0.90;0.50;;;36.70;31.20;;;;;;5028941;28;20203;-80
2022/07/13 12:38:55;;;;;;;2.03;0.70;;;36.80;30.80;;;;;;5029507;28;20208;-80
2022/07/13 12:41:31;;;;;;;0.90;0.50;;;36.50;31.00;;;;;;5026680;28;20227;-80
2022/07/13 12:44:01;;;;;;;4.15;0.88;;;36.40;29.60;;;;;;5027358;28;20199;-80
2022/07/13 12:46:45;;;;;;;3.60;0.65;;;36.40;30.50;;;;;;5029231;28;20647;-80
2022/07/13 12:49:12;;;;;;;1.20;0.68;;;36.40;29.70;;;;;;5027548;28;20199;-80
2022/07/13 12:51:51;;;;;;;1.67;0.70;;;36.30;29.60;;;;;;5028253;28;20199;-79
2022/07/13 12:54:39;;;;;;;0.77;0.60;;;36.30;29.60;;;;;;5024947;28;20272;-80
2022/07/13 12:57:10;;;;;;;0.73;0.57;;;36.70;29.00;;;;;;5026568;28;20289;-80
2022/07/13 12:59:38;;;;;;;0.60;0.50;;;36.90;28.10;;;;;;5023506;28;20220;-80
2022/07/13 13:02:05;;;;;;;0.60;0.50;;;37.10;27.80;;;;;;5028079;28;20207;-80
2022/07/13 13:04:33;;;;;;;1.27;0.55;;;37.20;28.20;;;;;;5028125;28;20231;-80
2022/07/13 13:06:59;;;;;;;2.20;0.60;;;37.20;28.20;;;;;;5024770;28;20210;-80
2022/07/13 13:09:26;;;;;;;2.58;0.50;;;37.10;28.20;;;;;;5023401;28;20619;-80